sensor_id;sensor_type;location;lat;lon;timestamp;P1;durP1;ratioP1;P2;durP2;ratioP2
3779;SDS011;1905;52.482;9.802;2024-03-17T00:01:10;11.67;;;2.83;;
3779;SDS011;1905;52.482;9.802;2024-03-17T00:03:38;9.17;;;2.50;;
3779;SDS011;1905;52.482;9.802;2024-03-17T00:06:03;8.50;;;2.20;;
3779;SDS011;1905;52.482;9.802;2024-03-17T00:08:31;11.93;;;2.70;;
3779;SDS011;1905;52.482;9.802;2024-03-17T00:10:57;7.57;;;2.00;;
3779;SDS011;1905;52.482;9.802;2024-03-17T00:13:26;9.17;;;1.90;;
3779;SDS011;1905;52.482;9.802;2024-03-17T00:15:52;8.93;;;2.17;;
3779;SDS011;1905;52.482;9.802;2024-03-17T00:18:20;8.60;;;2.20;;
3779;SDS011;1905;52.482;9.802;2024-03-17T00:20:50;8.57;;;1.97;;
3779;SDS011;1905;52.482;9.802;2024-03-17T00:23:18;14.27;;;2.47;;
3779;SDS011;1905;52.482;9.802;2024-03-17T00:25:45;8.47;;;1.97;;
3779;SDS011;1905;52.482;9.802;2024-03-17T00:28:13;7.17;;;1.90;;
3779;SDS011;1905;52.482;9.802;2024-03-17T00:30:38;9.00;;;2.37;;
3779;SDS011;1905;52.482;9.802;2024-03-17T00:33:06;10.80;;;2.87;;
3779;SDS011;1905;52.482;9.802;2024-03-17T00:35:33;8.40;;;2.30;;
3779;SDS011;1905;52.482;9.802;2024-03-17T00:38:00;10.70;;;2.40;;
3779;SDS011;1905;52.482;9.802;2024-03-17T00:40:29;8.57;;;2.03;;
3779;SDS011;1905;52.482;9.802;2024-03-17T00:42:56;6.83;;;2.13;;
3779;SDS011;1905;52.482;9.802;2024-03-17T00:45:22;7.20;;;2.30;;
3779;SDS011;1905;52.482;9.802;2024-03-17T00:47:48;12.70;;;3.13;;
3779;SDS011;1905;52.482;9.802;2024-03-17T00:50:15;9.10;;;2.27;;
3779;SDS011;1905;52.482;9.802;2024-03-17T00:52:42;9.70;;;2.10;;
3779;SDS011;1905;52.482;9.802;2024-03-17T00:55:08;11.50;;;2.83;;
3779;SDS011;1905;52.482;9.802;2024-03-17T00:57:36;9.20;;;2.40;;
3779;SDS011;1905;52.482;9.802;2024-03-17T01:00:03;8.17;;;1.87;;
3779;SDS011;1905;52.482;9.802;2024-03-17T01:02:31;12.60;;;3.53;;
3779;SDS011;1905;52.482;9.802;2024-03-17T01:04:57;10.77;;;1.97;;
3779;SDS011;1905;52.482;9.802;2024-03-17T01:07:24;8.20;;;1.77;;
3779;SDS011;1905;52.482;9.802;2024-03-17T01:09:51;11.50;;;2.67;;
3779;SDS011;1905;52.482;9.802;2024-03-17T01:12:19;10.00;;;2.17;;
3779;SDS011;1905;52.482;9.802;2024-03-17T01:14:46;7.23;;;2.00;;
3779;SDS011;1905;52.482;9.802;2024-03-17T01:17:13;9.50;;;2.70;;
3779;SDS011;1905;52.482;9.802;2024-03-17T01:19:38;10.27;;;2.17;;
3779;SDS011;1905;52.482;9.802;2024-03-17T01:22:05;9.13;;;2.33;;
3779;SDS011;1905;52.482;9.802;2024-03-17T01:24:31;7.80;;;2.53;;
3779;SDS011;1905;52.482;9.802;2024-03-17T01:26:59;9.83;;;2.27;;
3779;SDS011;1905;52.482;9.802;2024-03-17T01:29:25;10.33;;;2.30;;
3779;SDS011;1905;52.482;9.802;2024-03-17T01:31:52;7.13;;;2.73;;
3779;SDS011;1905;52.482;9.802;2024-03-17T01:34:18;6.53;;;2.10;;
3779;SDS011;1905;52.482;9.802;2024-03-17T01:36:46;8.13;;;2.50;;
3779;SDS011;1905;52.482;9.802;2024-03-17T01:39:13;8.73;;;2.20;;
3779;SDS011;1905;52.482;9.802;2024-03-17T01:41:39;13.90;;;2.53;;
3779;SDS011;1905;52.482;9.802;2024-03-17T01:44:06;7.00;;;1.70;;
3779;SDS011;1905;52.482;9.802;2024-03-17T01:46:32;8.80;;;2.23;;
3779;SDS011;1905;52.482;9.802;2024-03-17T01:48:59;7.53;;;2.23;;
3779;SDS011;1905;52.482;9.802;2024-03-17T01:51:26;7.00;;;2.27;;
3779;SDS011;1905;52.482;9.802;2024-03-17T01:53:53;8.73;;;2.17;;
3779;SDS011;1905;52.482;9.802;2024-03-17T01:56:19;7.30;;;2.50;;
3779;SDS011;1905;52.482;9.802;2024-03-17T01:58:46;7.50;;;2.40;;
3779;SDS011;1905;52.482;9.802;2024-03-17T02:01:13;8.23;;;1.77;;
3779;SDS011;1905;52.482;9.802;2024-03-17T02:03:41;10.50;;;2.60;;
3779;SDS011;1905;52.482;9.802;2024-03-17T02:06:07;8.53;;;1.77;;
3779;SDS011;1905;52.482;9.802;2024-03-17T02:08:52;9.30;;;2.33;;
3779;SDS011;1905;52.482;9.802;2024-03-17T02:11:37;6.90;;;1.90;;
3779;SDS011;1905;52.482;9.802;2024-03-17T02:14:05;8.90;;;2.30;;
3779;SDS011;1905;52.482;9.802;2024-03-17T02:16:33;7.87;;;2.00;;
3779;SDS011;1905;52.482;9.802;2024-03-17T02:19:00;11.13;;;2.00;;
3779;SDS011;1905;52.482;9.802;2024-03-17T02:21:26;7.47;;;2.03;;
3779;SDS011;1905;52.482;9.802;2024-03-17T02:23:54;9.30;;;2.13;;
3779;SDS011;1905;52.482;9.802;2024-03-17T02:26:22;11.00;;;2.37;;
3779;SDS011;1905;52.482;9.802;2024-03-17T02:28:49;11.63;;;2.30;;
3779;SDS011;1905;52.482;9.802;2024-03-17T02:31:19;9.23;;;1.90;;
3779;SDS011;1905;52.482;9.802;2024-03-17T02:33:50;8.20;;;1.77;;
3779;SDS011;1905;52.482;9.802;2024-03-17T02:36:16;10.13;;;2.37;;
3779;SDS011;1905;52.482;9.802;2024-03-17T02:38:44;7.53;;;2.10;;
3779;SDS011;1905;52.482;9.802;2024-03-17T02:41:28;9.63;;;2.37;;
3779;SDS011;1905;52.482;9.802;2024-03-17T02:43:55;8.73;;;1.97;;
3779;SDS011;1905;52.482;9.802;2024-03-17T02:46:22;8.77;;;2.30;;
3779;SDS011;1905;52.482;9.802;2024-03-17T02:48:51;8.83;;;2.00;;
3779;SDS011;1905;52.482;9.802;2024-03-17T02:51:19;9.60;;;2.10;;
3779;SDS011;1905;52.482;9.802;2024-03-17T02:53:47;8.07;;;2.17;;
3779;SDS011;1905;52.482;9.802;2024-03-17T02:56:15;7.57;;;2.20;;
3779;SDS011;1905;52.482;9.802;2024-03-17T02:58:45;8.20;;;2.53;;
3779;SDS011;1905;52.482;9.802;2024-03-17T03:01:12;7.73;;;2.20;;
3779;SDS011;1905;52.482;9.802;2024-03-17T03:03:40;7.70;;;2.73;;
3779;SDS011;1905;52.482;9.802;2024-03-17T03:06:07;11.50;;;2.13;;
3779;SDS011;1905;52.482;9.802;2024-03-17T03:08:40;6.93;;;2.17;;
3779;SDS011;1905;52.482;9.802;2024-03-17T03:11:08;9.33;;;2.07;;
3779;SDS011;1905;52.482;9.802;2024-03-17T03:13:38;9.07;;;1.93;;
3779;SDS011;1905;52.482;9.802;2024-03-17T03:16:11;9.80;;;2.03;;
3779;SDS011;1905;52.482;9.802;2024-03-17T03:18:41;8.63;;;2.53;;
3779;SDS011;1905;52.482;9.802;2024-03-17T03:21:10;10.07;;;2.77;;
3779;SDS011;1905;52.482;9.802;2024-03-17T03:23:38;9.27;;;2.50;;
3779;SDS011;1905;52.482;9.802;2024-03-17T03:26:05;7.57;;;2.20;;
3779;SDS011;1905;52.482;9.802;2024-03-17T03:28:34;8.80;;;2.30;;
3779;SDS011;1905;52.482;9.802;2024-03-17T03:31:01;7.87;;;2.60;;
3779;SDS011;1905;52.482;9.802;2024-03-17T03:33:29;9.87;;;2.20;;
3779;SDS011;1905;52.482;9.802;2024-03-17T03:35:56;7.90;;;1.90;;
3779;SDS011;1905;52.482;9.802;2024-03-17T03:38:23;9.00;;;2.33;;
3779;SDS011;1905;52.482;9.802;2024-03-17T03:40:50;9.67;;;2.67;;
3779;SDS011;1905;52.482;9.802;2024-03-17T03:43:18;8.07;;;2.53;;
3779;SDS011;1905;52.482;9.802;2024-03-17T03:45:45;7.30;;;2.30;;
3779;SDS011;1905;52.482;9.802;2024-03-17T03:48:12;8.77;;;2.40;;
3779;SDS011;1905;52.482;9.802;2024-03-17T03:50:39;7.40;;;2.27;;
3779;SDS011;1905;52.482;9.802;2024-03-17T03:53:06;8.50;;;2.53;;
3779;SDS011;1905;52.482;9.802;2024-03-17T03:55:33;8.33;;;2.37;;
3779;SDS011;1905;52.482;9.802;2024-03-17T03:57:59;8.93;;;2.10;;
3779;SDS011;1905;52.482;9.802;2024-03-17T04:00:29;8.03;;;2.00;;
3779;SDS011;1905;52.482;9.802;2024-03-17T04:02:56;8.23;;;2.10;;
3779;SDS011;1905;52.482;9.802;2024-03-17T04:05:25;8.70;;;2.23;;
3779;SDS011;1905;52.482;9.802;2024-03-17T04:07:52;7.47;;;1.73;;
3779;SDS011;1905;52.482;9.802;2024-03-17T04:10:19;7.40;;;2.30;;
3779;SDS011;1905;52.482;9.802;2024-03-17T04:12:46;9.50;;;2.50;;
3779;SDS011;1905;52.482;9.802;2024-03-17T04:15:14;9.10;;;2.13;;
3779;SDS011;1905;52.482;9.802;2024-03-17T04:17:41;8.07;;;2.30;;
3779;SDS011;1905;52.482;9.802;2024-03-17T04:20:08;12.00;;;2.03;;
3779;SDS011;1905;52.482;9.802;2024-03-17T04:22:39;8.03;;;2.40;;
3779;SDS011;1905;52.482;9.802;2024-03-17T04:25:08;7.60;;;2.37;;
3779;SDS011;1905;52.482;9.802;2024-03-17T04:27:35;8.17;;;2.17;;
3779;SDS011;1905;52.482;9.802;2024-03-17T04:30:04;9.17;;;2.10;;
3779;SDS011;1905;52.482;9.802;2024-03-17T04:32:33;9.73;;;2.40;;
3779;SDS011;1905;52.482;9.802;2024-03-17T04:34:59;8.50;;;2.50;;
3779;SDS011;1905;52.482;9.802;2024-03-17T04:37:27;11.97;;;2.93;;
3779;SDS011;1905;52.482;9.802;2024-03-17T04:39:54;8.97;;;3.07;;
3779;SDS011;1905;52.482;9.802;2024-03-17T04:42:23;9.57;;;2.37;;
3779;SDS011;1905;52.482;9.802;2024-03-17T04:44:50;9.63;;;2.70;;
3779;SDS011;1905;52.482;9.802;2024-03-17T04:47:18;10.80;;;2.33;;
3779;SDS011;1905;52.482;9.802;2024-03-17T04:49:45;6.87;;;2.37;;
3779;SDS011;1905;52.482;9.802;2024-03-17T04:52:12;6.93;;;2.20;;
3779;SDS011;1905;52.482;9.802;2024-03-17T04:54:41;7.63;;;2.73;;
3779;SDS011;1905;52.482;9.802;2024-03-17T04:57:09;10.97;;;2.53;;
3779;SDS011;1905;52.482;9.802;2024-03-17T04:59:36;7.90;;;2.13;;
3779;SDS011;1905;52.482;9.802;2024-03-17T05:02:03;10.77;;;2.37;;
3779;SDS011;1905;52.482;9.802;2024-03-17T05:04:31;8.43;;;2.47;;
3779;SDS011;1905;52.482;9.802;2024-03-17T05:06:58;11.37;;;3.07;;
3779;SDS011;1905;52.482;9.802;2024-03-17T05:09:25;11.33;;;2.83;;
3779;SDS011;1905;52.482;9.802;2024-03-17T05:11:52;7.23;;;2.40;;
3779;SDS011;1905;52.482;9.802;2024-03-17T05:14:19;8.50;;;3.00;;
3779;SDS011;1905;52.482;9.802;2024-03-17T05:16:50;9.20;;;2.70;;
3779;SDS011;1905;52.482;9.802;2024-03-17T05:19:17;8.00;;;2.20;;
3779;SDS011;1905;52.482;9.802;2024-03-17T05:21:45;10.23;;;2.47;;
3779;SDS011;1905;52.482;9.802;2024-03-17T05:24:12;9.30;;;2.70;;
3779;SDS011;1905;52.482;9.802;2024-03-17T05:26:39;6.93;;;1.97;;
3779;SDS011;1905;52.482;9.802;2024-03-17T05:29:07;20.07;;;3.47;;
3779;SDS011;1905;52.482;9.802;2024-03-17T05:31:35;11.83;;;2.73;;
3779;SDS011;1905;52.482;9.802;2024-03-17T05:34:07;12.80;;;2.33;;
3779;SDS011;1905;52.482;9.802;2024-03-17T05:36:36;7.60;;;2.77;;
3779;SDS011;1905;52.482;9.802;2024-03-17T05:39:03;9.80;;;2.67;;
3779;SDS011;1905;52.482;9.802;2024-03-17T05:41:30;7.83;;;2.50;;
3779;SDS011;1905;52.482;9.802;2024-03-17T05:43:58;7.80;;;2.77;;
3779;SDS011;1905;52.482;9.802;2024-03-17T05:46:29;9.80;;;2.57;;
3779;SDS011;1905;52.482;9.802;2024-03-17T05:48:57;10.60;;;2.80;;
3779;SDS011;1905;52.482;9.802;2024-03-17T05:51:24;11.73;;;3.10;;
3779;SDS011;1905;52.482;9.802;2024-03-17T05:53:53;12.67;;;2.50;;
3779;SDS011;1905;52.482;9.802;2024-03-17T05:56:22;12.90;;;2.63;;
3779;SDS011;1905;52.482;9.802;2024-03-17T05:58:49;7.60;;;2.47;;
3779;SDS011;1905;52.482;9.802;2024-03-17T06:01:16;9.47;;;2.83;;
3779;SDS011;1905;52.482;9.802;2024-03-17T06:03:44;11.13;;;3.00;;
3779;SDS011;1905;52.482;9.802;2024-03-17T06:06:12;10.23;;;3.00;;
3779;SDS011;1905;52.482;9.802;2024-03-17T06:08:39;9.40;;;3.20;;
3779;SDS011;1905;52.482;9.802;2024-03-17T06:11:06;11.27;;;3.50;;
3779;SDS011;1905;52.482;9.802;2024-03-17T06:13:34;10.13;;;3.00;;
3779;SDS011;1905;52.482;9.802;2024-03-17T06:16:02;10.50;;;2.47;;
3779;SDS011;1905;52.482;9.802;2024-03-17T06:18:31;7.80;;;2.80;;
3779;SDS011;1905;52.482;9.802;2024-03-17T06:20:58;9.87;;;3.10;;
3779;SDS011;1905;52.482;9.802;2024-03-17T06:23:40;9.70;;;3.17;;
3779;SDS011;1905;52.482;9.802;2024-03-17T06:26:11;14.53;;;3.60;;
3779;SDS011;1905;52.482;9.802;2024-03-17T06:28:39;9.50;;;3.60;;
3779;SDS011;1905;52.482;9.802;2024-03-17T06:31:08;8.33;;;3.13;;
3779;SDS011;1905;52.482;9.802;2024-03-17T06:33:36;8.60;;;2.87;;
3779;SDS011;1905;52.482;9.802;2024-03-17T06:36:03;9.30;;;2.80;;
3779;SDS011;1905;52.482;9.802;2024-03-17T06:38:31;16.10;;;4.50;;
3779;SDS011;1905;52.482;9.802;2024-03-17T06:40:59;12.57;;;3.30;;
3779;SDS011;1905;52.482;9.802;2024-03-17T06:43:26;10.30;;;2.80;;
3779;SDS011;1905;52.482;9.802;2024-03-17T06:45:53;10.60;;;3.10;;
3779;SDS011;1905;52.482;9.802;2024-03-17T06:48:24;8.07;;;3.00;;
3779;SDS011;1905;52.482;9.802;2024-03-17T06:50:52;14.77;;;3.60;;
3779;SDS011;1905;52.482;9.802;2024-03-17T06:53:21;12.83;;;3.73;;
3779;SDS011;1905;52.482;9.802;2024-03-17T06:55:55;8.93;;;3.07;;
3779;SDS011;1905;52.482;9.802;2024-03-17T06:58:25;10.50;;;3.80;;
3779;SDS011;1905;52.482;9.802;2024-03-17T07:00:59;11.73;;;4.57;;
3779;SDS011;1905;52.482;9.802;2024-03-17T07:03:30;8.63;;;3.30;;
3779;SDS011;1905;52.482;9.802;2024-03-17T07:05:58;10.57;;;4.57;;
3779;SDS011;1905;52.482;9.802;2024-03-17T07:08:28;9.93;;;3.47;;
3779;SDS011;1905;52.482;9.802;2024-03-17T07:10:56;10.40;;;4.00;;
3779;SDS011;1905;52.482;9.802;2024-03-17T07:13:37;9.60;;;3.50;;
3779;SDS011;1905;52.482;9.802;2024-03-17T07:16:06;13.53;;;3.70;;
3779;SDS011;1905;52.482;9.802;2024-03-17T07:18:34;11.37;;;4.13;;
3779;SDS011;1905;52.482;9.802;2024-03-17T07:21:02;12.70;;;4.93;;
3779;SDS011;1905;52.482;9.802;2024-03-17T07:23:31;12.17;;;4.73;;
3779;SDS011;1905;52.482;9.802;2024-03-17T07:25:59;12.13;;;5.00;;
3779;SDS011;1905;52.482;9.802;2024-03-17T07:28:27;9.60;;;4.50;;
3779;SDS011;1905;52.482;9.802;2024-03-17T07:30:55;13.50;;;5.37;;
3779;SDS011;1905;52.482;9.802;2024-03-17T07:33:23;11.40;;;5.30;;
3779;SDS011;1905;52.482;9.802;2024-03-17T07:35:52;13.47;;;5.47;;
3779;SDS011;1905;52.482;9.802;2024-03-17T07:38:22;12.83;;;5.27;;
3779;SDS011;1905;52.482;9.802;2024-03-17T07:41:01;13.83;;;5.30;;
3779;SDS011;1905;52.482;9.802;2024-03-17T07:43:33;17.10;;;5.93;;
3779;SDS011;1905;52.482;9.802;2024-03-17T07:46:05;15.53;;;7.07;;
3779;SDS011;1905;52.482;9.802;2024-03-17T07:48:35;21.13;;;6.33;;
3779;SDS011;1905;52.482;9.802;2024-03-17T07:51:04;11.57;;;4.83;;
3779;SDS011;1905;52.482;9.802;2024-03-17T07:53:37;12.87;;;5.70;;
3779;SDS011;1905;52.482;9.802;2024-03-17T07:56:09;13.90;;;5.30;;
3779;SDS011;1905;52.482;9.802;2024-03-17T07:58:38;13.13;;;5.30;;
3779;SDS011;1905;52.482;9.802;2024-03-17T08:01:07;16.00;;;7.27;;
3779;SDS011;1905;52.482;9.802;2024-03-17T08:03:37;17.60;;;4.93;;
3779;SDS011;1905;52.482;9.802;2024-03-17T08:06:05;13.17;;;4.63;;
3779;SDS011;1905;52.482;9.802;2024-03-17T08:08:34;15.47;;;5.03;;
3779;SDS011;1905;52.482;9.802;2024-03-17T08:11:02;16.53;;;6.00;;
3779;SDS011;1905;52.482;9.802;2024-03-17T08:13:30;13.93;;;4.37;;
3779;SDS011;1905;52.482;9.802;2024-03-17T08:16:00;14.77;;;4.80;;
3779;SDS011;1905;52.482;9.802;2024-03-17T08:18:29;20.73;;;5.87;;
3779;SDS011;1905;52.482;9.802;2024-03-17T08:20:59;11.90;;;4.43;;
3779;SDS011;1905;52.482;9.802;2024-03-17T08:23:27;11.03;;;5.03;;
3779;SDS011;1905;52.482;9.802;2024-03-17T08:25:54;17.50;;;5.07;;
3779;SDS011;1905;52.482;9.802;2024-03-17T08:28:23;19.13;;;6.80;;
3779;SDS011;1905;52.482;9.802;2024-03-17T08:30:55;22.50;;;4.87;;
3779;SDS011;1905;52.482;9.802;2024-03-17T08:33:24;17.07;;;5.07;;
3779;SDS011;1905;52.482;9.802;2024-03-17T08:36:04;18.70;;;5.17;;
3779;SDS011;1905;52.482;9.802;2024-03-17T08:38:33;26.17;;;4.43;;
3779;SDS011;1905;52.482;9.802;2024-03-17T08:41:02;23.93;;;4.60;;
3779;SDS011;1905;52.482;9.802;2024-03-17T08:43:31;13.70;;;4.73;;
3779;SDS011;1905;52.482;9.802;2024-03-17T08:45:59;12.10;;;4.10;;
3779;SDS011;1905;52.482;9.802;2024-03-17T08:48:35;22.60;;;4.60;;
3779;SDS011;1905;52.482;9.802;2024-03-17T08:51:04;18.70;;;4.30;;
3779;SDS011;1905;52.482;9.802;2024-03-17T08:53:32;14.40;;;3.40;;
3779;SDS011;1905;52.482;9.802;2024-03-17T08:55:59;16.07;;;3.40;;
3779;SDS011;1905;52.482;9.802;2024-03-17T08:58:26;20.83;;;3.77;;
3779;SDS011;1905;52.482;9.802;2024-03-17T09:00:54;9.00;;;3.70;;
3779;SDS011;1905;52.482;9.802;2024-03-17T09:03:21;15.50;;;4.00;;
3779;SDS011;1905;52.482;9.802;2024-03-17T09:05:49;16.03;;;3.37;;
3779;SDS011;1905;52.482;9.802;2024-03-17T09:08:23;13.23;;;3.03;;
3779;SDS011;1905;52.482;9.802;2024-03-17T09:10:52;13.30;;;5.03;;
3779;SDS011;1905;52.482;9.802;2024-03-17T09:13:21;25.60;;;3.73;;
3779;SDS011;1905;52.482;9.802;2024-03-17T09:15:58;16.70;;;3.73;;
3779;SDS011;1905;52.482;9.802;2024-03-17T09:21:18;10.97;;;3.30;;
3779;SDS011;1905;52.482;9.802;2024-03-17T09:23:48;8.40;;;2.10;;
3779;SDS011;1905;52.482;9.802;2024-03-17T09:26:16;8.60;;;2.60;;
3779;SDS011;1905;52.482;9.802;2024-03-17T09:28:43;7.90;;;2.33;;
3779;SDS011;1905;52.482;9.802;2024-03-17T09:31:11;7.47;;;1.97;;
3779;SDS011;1905;52.482;9.802;2024-03-17T09:33:39;11.30;;;2.10;;
3779;SDS011;1905;52.482;9.802;2024-03-17T09:36:06;7.73;;;1.90;;
3779;SDS011;1905;52.482;9.802;2024-03-17T09:38:36;7.80;;;2.00;;
3779;SDS011;1905;52.482;9.802;2024-03-17T09:41:06;16.23;;;2.60;;
3779;SDS011;1905;52.482;9.802;2024-03-17T09:43:34;13.40;;;2.33;;
3779;SDS011;1905;52.482;9.802;2024-03-17T09:46:02;13.07;;;3.00;;
3779;SDS011;1905;52.482;9.802;2024-03-17T09:48:30;13.53;;;2.70;;
3779;SDS011;1905;52.482;9.802;2024-03-17T09:50:59;10.43;;;2.77;;
3779;SDS011;1905;52.482;9.802;2024-03-17T09:53:30;8.73;;;2.77;;
3779;SDS011;1905;52.482;9.802;2024-03-17T09:56:09;12.53;;;2.93;;
3779;SDS011;1905;52.482;9.802;2024-03-17T09:58:38;10.07;;;3.77;;
3779;SDS011;1905;52.482;9.802;2024-03-17T10:01:04;13.07;;;3.77;;
3779;SDS011;1905;52.482;9.802;2024-03-17T10:06:17;10.40;;;2.70;;
3779;SDS011;1905;52.482;9.802;2024-03-17T10:08:46;11.90;;;3.27;;
3779;SDS011;1905;52.482;9.802;2024-03-17T10:11:32;12.13;;;3.90;;
3779;SDS011;1905;52.482;9.802;2024-03-17T10:14:01;10.13;;;3.90;;
3779;SDS011;1905;52.482;9.802;2024-03-17T10:16:31;12.40;;;3.73;;
3779;SDS011;1905;52.482;9.802;2024-03-17T10:19:09;17.53;;;3.97;;
3779;SDS011;1905;52.482;9.802;2024-03-17T10:21:41;10.23;;;3.53;;
3779;SDS011;1905;52.482;9.802;2024-03-17T10:24:18;10.63;;;3.10;;
3779;SDS011;1905;52.482;9.802;2024-03-17T10:26:47;14.03;;;3.90;;
3779;SDS011;1905;52.482;9.802;2024-03-17T10:29:31;12.47;;;4.80;;
3779;SDS011;1905;52.482;9.802;2024-03-17T10:32:05;13.63;;;4.57;;
3779;SDS011;1905;52.482;9.802;2024-03-17T10:34:43;14.30;;;4.57;;
3779;SDS011;1905;52.482;9.802;2024-03-17T10:39:45;8.30;;;3.33;;
3779;SDS011;1905;52.482;9.802;2024-03-17T10:42:14;14.20;;;4.00;;
3779;SDS011;1905;52.482;9.802;2024-03-17T10:44:51;11.07;;;3.43;;
3779;SDS011;1905;52.482;9.802;2024-03-17T10:47:21;12.43;;;3.80;;
3779;SDS011;1905;52.482;9.802;2024-03-17T10:49:49;13.27;;;4.67;;
3779;SDS011;1905;52.482;9.802;2024-03-17T10:52:17;10.30;;;4.43;;
3779;SDS011;1905;52.482;9.802;2024-03-17T10:54:52;10.57;;;3.97;;
3779;SDS011;1905;52.482;9.802;2024-03-17T11:00:03;16.63;;;4.53;;
3779;SDS011;1905;52.482;9.802;2024-03-17T11:02:34;14.23;;;4.10;;
3779;SDS011;1905;52.482;9.802;2024-03-17T11:05:10;11.87;;;4.80;;
3779;SDS011;1905;52.482;9.802;2024-03-17T11:07:38;13.63;;;5.53;;
3779;SDS011;1905;52.482;9.802;2024-03-17T11:10:15;10.00;;;3.53;;
3779;SDS011;1905;52.482;9.802;2024-03-17T11:12:53;12.40;;;3.60;;
3779;SDS011;1905;52.482;9.802;2024-03-17T11:17:51;12.60;;;4.60;;
3779;SDS011;1905;52.482;9.802;2024-03-17T11:20:25;12.53;;;4.60;;
3779;SDS011;1905;52.482;9.802;2024-03-17T11:22:57;10.57;;;4.53;;
3779;SDS011;1905;52.482;9.802;2024-03-17T11:27:53;17.20;;;4.70;;
3779;SDS011;1905;52.482;9.802;2024-03-17T11:46:40;14.20;;;5.43;;
3779;SDS011;1905;52.482;9.802;2024-03-17T11:51:50;12.40;;;4.10;;
3779;SDS011;1905;52.482;9.802;2024-03-17T11:54:20;12.03;;;4.30;;
3779;SDS011;1905;52.482;9.802;2024-03-17T11:56:53;13.30;;;5.07;;
3779;SDS011;1905;52.482;9.802;2024-03-17T11:59:21;16.40;;;4.80;;
3779;SDS011;1905;52.482;9.802;2024-03-17T12:01:49;12.03;;;4.70;;
3779;SDS011;1905;52.482;9.802;2024-03-17T12:04:19;12.00;;;4.50;;
3779;SDS011;1905;52.482;9.802;2024-03-17T12:06:56;19.37;;;4.40;;
3779;SDS011;1905;52.482;9.802;2024-03-17T12:09:26;9.63;;;5.10;;
3779;SDS011;1905;52.482;9.802;2024-03-17T12:12:04;11.73;;;4.30;;
3779;SDS011;1905;52.482;9.802;2024-03-17T12:14:35;10.53;;;5.60;;
3779;SDS011;1905;52.482;9.802;2024-03-17T12:17:04;12.47;;;4.70;;
3779;SDS011;1905;52.482;9.802;2024-03-17T12:19:35;12.27;;;4.70;;
3779;SDS011;1905;52.482;9.802;2024-03-17T12:22:03;16.23;;;5.40;;
3779;SDS011;1905;52.482;9.802;2024-03-17T12:24:34;13.90;;;4.67;;
3779;SDS011;1905;52.482;9.802;2024-03-17T12:27:06;9.63;;;4.60;;
3779;SDS011;1905;52.482;9.802;2024-03-17T12:29:36;11.60;;;4.40;;
3779;SDS011;1905;52.482;9.802;2024-03-17T12:32:09;14.40;;;5.63;;
3779;SDS011;1905;52.482;9.802;2024-03-17T12:34:37;12.10;;;4.60;;
3779;SDS011;1905;52.482;9.802;2024-03-17T12:37:04;10.93;;;5.30;;
3779;SDS011;1905;52.482;9.802;2024-03-17T12:39:32;16.30;;;4.70;;
3779;SDS011;1905;52.482;9.802;2024-03-17T12:47:07;12.77;;;4.43;;
3779;SDS011;1905;52.482;9.802;2024-03-17T12:49:44;9.00;;;3.80;;
3779;SDS011;1905;52.482;9.802;2024-03-17T12:52:19;10.40;;;4.90;;
3779;SDS011;1905;52.482;9.802;2024-03-17T12:55:00;15.90;;;3.93;;
3779;SDS011;1905;52.482;9.802;2024-03-17T12:57:46;11.07;;;5.33;;
3779;SDS011;1905;52.482;9.802;2024-03-17T13:00:34;9.60;;;4.13;;
3779;SDS011;1905;52.482;9.802;2024-03-17T13:03:02;11.80;;;6.07;;
3779;SDS011;1905;52.482;9.802;2024-03-17T13:05:30;13.70;;;6.70;;
3779;SDS011;1905;52.482;9.802;2024-03-17T13:07:58;12.70;;;5.60;;
3779;SDS011;1905;52.482;9.802;2024-03-17T13:10:26;12.00;;;5.20;;
3779;SDS011;1905;52.482;9.802;2024-03-17T13:12:59;14.87;;;5.20;;
3779;SDS011;1905;52.482;9.802;2024-03-17T13:15:28;12.93;;;5.07;;
3779;SDS011;1905;52.482;9.802;2024-03-17T13:17:57;15.37;;;5.80;;
3779;SDS011;1905;52.482;9.802;2024-03-17T13:20:29;13.53;;;5.53;;
3779;SDS011;1905;52.482;9.802;2024-03-17T13:22:57;15.90;;;4.70;;
3779;SDS011;1905;52.482;9.802;2024-03-17T13:25:26;11.13;;;4.50;;
3779;SDS011;1905;52.482;9.802;2024-03-17T13:28:00;12.13;;;4.87;;
3779;SDS011;1905;52.482;9.802;2024-03-17T13:30:29;10.30;;;4.87;;
3779;SDS011;1905;52.482;9.802;2024-03-17T13:32:59;13.90;;;4.40;;
3779;SDS011;1905;52.482;9.802;2024-03-17T13:35:27;10.50;;;4.87;;
3779;SDS011;1905;52.482;9.802;2024-03-17T13:37:56;14.33;;;5.17;;
3779;SDS011;1905;52.482;9.802;2024-03-17T13:40:25;12.07;;;4.83;;
3779;SDS011;1905;52.482;9.802;2024-03-17T13:42:54;16.87;;;5.37;;
3779;SDS011;1905;52.482;9.802;2024-03-17T13:45:23;12.50;;;4.80;;
3779;SDS011;1905;52.482;9.802;2024-03-17T13:48:01;11.30;;;4.50;;
3779;SDS011;1905;52.482;9.802;2024-03-17T13:50:30;12.80;;;5.20;;
3779;SDS011;1905;52.482;9.802;2024-03-17T13:52:57;9.57;;;4.50;;
3779;SDS011;1905;52.482;9.802;2024-03-17T13:55:25;9.03;;;4.20;;
3779;SDS011;1905;52.482;9.802;2024-03-17T14:00:25;10.97;;;4.77;;
3779;SDS011;1905;52.482;9.802;2024-03-17T14:02:53;12.57;;;4.67;;
3779;SDS011;1905;52.482;9.802;2024-03-17T14:05:22;11.30;;;5.20;;
3779;SDS011;1905;52.482;9.802;2024-03-17T14:07:53;15.60;;;4.93;;
3779;SDS011;1905;52.482;9.802;2024-03-17T14:10:23;10.97;;;4.13;;
3779;SDS011;1905;52.482;9.802;2024-03-17T14:12:51;14.50;;;5.00;;
3779;SDS011;1905;52.482;9.802;2024-03-17T14:15:19;12.97;;;4.00;;
3779;SDS011;1905;52.482;9.802;2024-03-17T14:17:46;12.73;;;5.17;;
3779;SDS011;1905;52.482;9.802;2024-03-17T14:20:16;10.13;;;4.00;;
3779;SDS011;1905;52.482;9.802;2024-03-17T14:22:44;10.67;;;4.43;;
3779;SDS011;1905;52.482;9.802;2024-03-17T14:25:17;13.03;;;4.90;;
3779;SDS011;1905;52.482;9.802;2024-03-17T14:27:45;11.70;;;4.30;;
3779;SDS011;1905;52.482;9.802;2024-03-17T14:30:14;18.30;;;6.70;;
3779;SDS011;1905;52.482;9.802;2024-03-17T14:32:44;12.23;;;5.07;;
3779;SDS011;1905;52.482;9.802;2024-03-17T14:35:17;14.60;;;5.17;;
3779;SDS011;1905;52.482;9.802;2024-03-17T14:37:46;13.50;;;5.10;;
3779;SDS011;1905;52.482;9.802;2024-03-17T14:40:14;17.63;;;5.33;;
3779;SDS011;1905;52.482;9.802;2024-03-17T14:42:47;12.30;;;4.40;;
3779;SDS011;1905;52.482;9.802;2024-03-17T14:45:15;9.53;;;3.70;;
3779;SDS011;1905;52.482;9.802;2024-03-17T14:47:42;9.80;;;4.27;;
3779;SDS011;1905;52.482;9.802;2024-03-17T14:50:10;9.03;;;3.97;;
3779;SDS011;1905;52.482;9.802;2024-03-17T14:52:39;14.63;;;4.57;;
3779;SDS011;1905;52.482;9.802;2024-03-17T14:55:07;12.57;;;4.90;;
3779;SDS011;1905;52.482;9.802;2024-03-17T14:57:39;16.67;;;4.33;;
3779;SDS011;1905;52.482;9.802;2024-03-17T15:00:08;10.10;;;4.60;;
3779;SDS011;1905;52.482;9.802;2024-03-17T15:02:42;11.20;;;4.30;;
3779;SDS011;1905;52.482;9.802;2024-03-17T15:05:11;9.97;;;4.20;;
3779;SDS011;1905;52.482;9.802;2024-03-17T15:07:40;13.13;;;4.73;;
3779;SDS011;1905;52.482;9.802;2024-03-17T15:10:07;10.33;;;4.10;;
3779;SDS011;1905;52.482;9.802;2024-03-17T15:12:35;11.40;;;4.73;;
3779;SDS011;1905;52.482;9.802;2024-03-17T15:15:02;12.60;;;4.90;;
3779;SDS011;1905;52.482;9.802;2024-03-17T15:17:30;13.60;;;4.13;;
3779;SDS011;1905;52.482;9.802;2024-03-17T15:19:56;10.03;;;4.03;;
3779;SDS011;1905;52.482;9.802;2024-03-17T15:22:24;10.30;;;3.97;;
3779;SDS011;1905;52.482;9.802;2024-03-17T15:24:52;14.47;;;4.83;;
3779;SDS011;1905;52.482;9.802;2024-03-17T15:27:22;14.20;;;4.60;;
3779;SDS011;1905;52.482;9.802;2024-03-17T15:29:49;12.70;;;4.13;;
3779;SDS011;1905;52.482;9.802;2024-03-17T15:32:17;12.73;;;4.40;;
3779;SDS011;1905;52.482;9.802;2024-03-17T15:34:45;12.77;;;4.60;;
3779;SDS011;1905;52.482;9.802;2024-03-17T15:37:12;10.67;;;4.13;;
3779;SDS011;1905;52.482;9.802;2024-03-17T15:39:39;11.73;;;5.20;;
3779;SDS011;1905;52.482;9.802;2024-03-17T15:42:06;9.53;;;3.70;;
3779;SDS011;1905;52.482;9.802;2024-03-17T15:44:36;10.53;;;4.20;;
3779;SDS011;1905;52.482;9.802;2024-03-17T15:47:03;11.20;;;4.57;;
3779;SDS011;1905;52.482;9.802;2024-03-17T15:49:31;10.63;;;3.63;;
3779;SDS011;1905;52.482;9.802;2024-03-17T15:51:58;17.07;;;5.37;;
3779;SDS011;1905;52.482;9.802;2024-03-17T15:54:26;9.87;;;4.43;;
3779;SDS011;1905;52.482;9.802;2024-03-17T15:56:54;10.87;;;4.70;;
3779;SDS011;1905;52.482;9.802;2024-03-17T15:59:21;11.80;;;4.50;;
3779;SDS011;1905;52.482;9.802;2024-03-17T16:01:48;13.40;;;5.10;;